Time;durP1;ratioP1;P1;durP2;ratioP2;P2;SDS_P1;SDS_P2;PMS_P1;PMS_P2;Temp;Humidity;BMP_temperature;BMP_pressure;BME280_temperature;BME280_humidity;BME280_pressure;Samples;Min_cycle;Max_cycle;Signal;HPM_P1;HPM_P2
2022/07/21 00:01:49;;;;;;;1.13;1.13;;;;;;;23.38;70.82;95750.25;4402095;32;20258;-53
2022/07/21 00:04:15;;;;;;;0.50;0.50;;;;;;;23.35;76.75;95737.44;4397513;32;20192;-51
2022/07/21 00:06:42;;;;;;;0.57;0.57;;;;;;;23.34;72.52;95745.91;4399893;32;20184;-52
2022/07/21 00:09:07;;;;;;;0.93;0.93;;;;;;;23.38;73.10;95752.16;4403995;32;20203;-49
2022/07/21 00:11:32;;;;;;;0.80;0.80;;;;;;;23.36;77.15;95752.53;4404645;32;20195;-50
2022/07/21 00:13:58;;;;;;;1.13;1.13;;;;;;;23.38;72.47;95742.13;4402652;32;20249;-52
2022/07/21 00:16:23;;;;;;;0.47;0.47;;;;;;;23.39;72.41;95742.91;4402573;32;20447;-51
2022/07/21 00:18:49;;;;;;;1.23;1.20;;;;;;;23.39;72.25;95742.91;4404376;32;20188;-51
2022/07/21 00:21:14;;;;;;;1.27;1.27;;;;;;;23.40;72.19;95742.53;4403988;32;20187;-51
2022/07/21 00:23:40;;;;;;;0.57;0.57;;;;;;;23.41;72.99;95746.81;4402236;32;20210;-50
2022/07/21 00:26:05;;;;;;;1.20;1.20;;;;;;;23.42;74.00;95748.37;4401967;32;20184;-51
2022/07/21 00:28:30;;;;;;;0.87;0.87;;;;;;;23.41;72.84;95744.09;4401222;32;20247;-50
2022/07/21 00:30:56;;;;;;;0.97;0.97;;;;;;;23.42;72.41;95748.37;4401492;32;20214;-50
2022/07/21 00:33:21;;;;;;;0.93;0.87;;;;;;;23.41;72.86;95756.88;4401805;32;20194;-53
2022/07/21 00:35:46;;;;;;;0.53;0.53;;;;;;;23.42;72.64;95766.56;4399981;32;20218;-52
2022/07/21 00:38:12;;;;;;;0.87;0.87;;;;;;;23.42;73.14;95764.63;4402881;32;20278;-53
2022/07/21 00:40:37;;;;;;;5.37;1.47;;;;;;;23.42;72.95;95761.13;4401110;32;20255;-52
2022/07/21 00:43:03;;;;;;;1.67;1.57;;;;;;;23.40;73.08;95766.91;4400021;32;20188;-54
2022/07/21 00:45:28;;;;;;;0.50;0.50;;;;;;;23.43;73.86;95778.94;4399883;32;20260;-53
2022/07/21 00:47:54;;;;;;;0.73;0.73;;;;;;;23.43;73.75;95784.38;4402006;32;21819;-53
2022/07/21 00:50:20;;;;;;;0.93;0.93;;;;;;;23.47;74.61;95787.91;4403557;32;20219;-54
2022/07/21 00:52:47;;;;;;;0.50;0.50;;;;;;;23.45;74.80;95791.00;4399535;32;20203;-51
2022/07/21 00:55:15;;;;;;;0.50;0.50;;;;;;;23.42;74.99;95774.69;4399467;32;20188;-53
2022/07/21 00:57:41;;;;;;;1.77;1.30;;;;;;;23.42;75.46;95769.25;4400567;32;20215;-53
2022/07/21 01:00:10;;;;;;;1.03;1.03;;;;;;;23.43;74.78;95773.53;4392756;32;20188;-53
2022/07/21 01:02:36;;;;;;;1.17;1.10;;;;;;;23.46;74.85;95770.09;4384455;32;20230;-54
2022/07/21 01:05:08;;;;;;;0.60;0.60;;;;;;;23.43;74.93;95766.19;4394292;32;20236;-54
2022/07/21 01:07:34;;;;;;;1.93;1.73;;;;;;;23.43;75.93;95770.81;4393077;32;20188;-50
2022/07/21 01:10:01;;;;;;;1.00;1.00;;;;;;;23.44;75.91;95775.88;4392981;32;20192;-51
2022/07/21 01:12:27;;;;;;;2.13;2.03;;;;;;;23.44;75.53;95781.28;4396095;32;20271;-53
2022/07/21 01:14:53;;;;;;;1.23;1.13;;;;;;;23.40;76.45;95776.97;4403589;32;20221;-52
2022/07/21 01:17:19;;;;;;;1.23;1.23;;;;;;;23.36;78.23;95776.91;4382852;32;20192;-54
2022/07/21 01:19:44;;;;;;;1.00;1.00;;;;;;;23.35;77.70;95783.47;4400610;32;20247;-53
2022/07/21 01:22:10;;;;;;;0.83;0.83;;;;;;;23.33;79.27;95783.03;4383335;32;20188;-54
2022/07/21 01:24:38;;;;;;;0.90;0.90;;;;;;;23.28;77.73;95775.22;4394450;32;20210;-51
2022/07/21 01:27:04;;;;;;;1.33;1.27;;;;;;;23.29;77.54;95776.78;4391278;32;20243;-51
2022/07/21 01:29:29;;;;;;;0.93;0.93;;;;;;;23.31;76.35;95779.91;4401291;32;20191;-54
2022/07/21 01:31:55;;;;;;;0.90;0.90;;;;;;;23.31;76.70;95769.09;4388034;32;20310;-53
2022/07/21 01:34:21;;;;;;;0.93;0.93;;;;;;;23.30;76.93;95764.81;4387232;32;20259;-52
2022/07/21 01:36:48;;;;;;;1.20;1.20;;;;;;;23.30;75.91;95767.53;4398689;32;20187;-54
2022/07/21 01:41:57;;;;;;;0.70;0.70;;;;;;;23.33;75.82;95755.19;4404833;32;20292;-54
2022/07/21 01:44:23;;;;;;;1.10;1.10;;;;;;;23.32;75.37;95743.56;4405256;32;20199;-50
2022/07/21 01:46:50;;;;;;;1.67;1.57;;;;;;;23.34;75.52;95751.34;4345564;32;20246;-55
2022/07/21 01:49:19;;;;;;;1.13;1.13;;;;;;;23.35;75.25;95748.25;4378593;32;20184;-52
2022/07/21 01:51:45;;;;;;;0.97;0.97;;;;;;;23.32;77.43;95754.41;4402937;32;20240;-55
2022/07/21 01:54:11;;;;;;;0.70;0.70;;;;;;;23.31;78.97;95750.91;4384216;32;20192;-54
2022/07/21 01:56:38;;;;;;;1.07;1.07;;;;;;;23.31;75.56;95759.03;4392159;32;20233;-52
2022/07/21 01:59:05;;;;;;;1.00;1.00;;;;;;;23.34;75.67;95759.47;4382874;32;20200;-54
2022/07/21 02:01:31;;;;;;;1.23;1.23;;;;;;;23.36;75.26;95757.94;4404621;32;20222;-51
2022/07/21 02:04:00;;;;;;;3.47;2.57;;;;;;;23.36;75.11;95762.59;4403980;32;20271;-54
2022/07/21 02:06:28;;;;;;;1.30;1.20;;;;;;;23.35;75.79;95766.44;4379189;32;20267;-53
2022/07/21 02:08:53;;;;;;;1.50;1.40;;;;;;;23.36;75.04;95763.37;4397942;32;20195;-53
2022/07/21 02:11:19;;;;;;;0.80;0.80;;;;;;;23.37;75.64;95761.44;4403049;32;20196;-53
2022/07/21 02:13:45;;;;;;;1.73;1.63;;;;;;;23.38;75.21;95757.59;4377812;32;20197;-54
2022/07/21 02:16:11;;;;;;;1.17;1.17;;;;;;;23.35;77.14;95752.91;4387373;32;20203;-54
2022/07/21 02:18:37;;;;;;;0.90;0.90;;;;;;;23.36;76.00;95759.88;4378898;32;20192;-51
2022/07/21 02:21:05;;;;;;;0.90;0.90;;;;;;;23.35;77.68;95759.09;4391286;32;20203;-51
2022/07/21 02:23:32;;;;;;;1.20;1.20;;;;;;;23.34;76.89;95760.25;4404351;32;20195;-52
2022/07/21 02:25:58;;;;;;;0.80;0.80;;;;;;;23.35;76.84;95763.72;4402740;32;20222;-54
2022/07/21 02:28:24;;;;;;;1.97;1.87;;;;;;;23.31;76.81;95767.16;4392622;32;20196;-52
2022/07/21 02:30:50;;;;;;;0.77;0.77;;;;;;;23.33;75.68;95768.72;4392124;32;20192;-54
2022/07/21 02:33:17;;;;;;;1.03;1.03;;;;;;;23.31;76.21;95767.16;4390951;32;20245;-53
2022/07/21 02:35:42;;;;;;;1.50;1.50;;;;;;;23.33;75.80;95771.44;4393047;32;20296;-53
2022/07/21 02:38:08;;;;;;;1.43;1.43;;;;;;;23.34;75.53;95776.47;4400442;32;20258;-55
2022/07/21 02:40:34;;;;;;;0.87;0.87;;;;;;;23.35;74.77;95779.97;4404496;32;20275;-52
2022/07/21 02:43:00;;;;;;;1.43;1.33;;;;;;;23.32;76.41;95776.06;4393607;32;20196;-52
2022/07/21 02:45:27;;;;;;;1.20;0.83;;;;;;;23.32;76.04;95784.19;4365118;32;20364;-53
2022/07/21 02:48:05;;;;;;;7.83;1.43;;;;;;;23.35;76.29;95785.37;4393600;32;20296;-52
2022/07/21 02:50:36;;;;;;;1.60;1.50;;;;;;;23.31;76.43;95791.53;4358122;32;20192;-54
2022/07/21 02:53:14;;;;;;;1.00;1.00;;;;;;;23.29;77.37;95791.09;4376531;32;20196;-54
2022/07/21 02:55:40;;;;;;;1.20;1.20;;;;;;;23.29;77.16;95788.41;4390169;32;20196;-54
2022/07/21 02:58:14;;;;;;;1.30;1.23;;;;;;;23.29;78.32;95788.41;4395190;32;20219;-53
2022/07/21 03:01:10;;;;;;;1.30;1.20;;;;;;;23.28;79.58;95781.41;4382354;32;20213;-51
2022/07/21 03:03:36;;;;;;;1.10;1.10;;;;;;;23.27;77.60;95779.88;4401465;32;20195;-54
2022/07/21 03:06:05;;;;;;;1.30;1.30;;;;;;;23.29;78.15;95777.56;4395926;32;20206;-53
2022/07/21 03:08:30;;;;;;;2.83;1.70;;;;;;;23.23;79.07;95775.56;4393395;32;20203;-54
2022/07/21 03:10:57;;;;;;;0.97;0.97;;;;;;;23.27;77.17;95768.28;4376700;32;20271;-52
2022/07/21 03:13:23;;;;;;;1.23;1.17;;;;;;;23.28;77.85;95776.00;4354324;32;20215;-54
2022/07/21 03:15:49;;;;;;;1.50;1.50;;;;;;;23.29;77.80;95777.56;4390003;32;20192;-53
2022/07/21 03:18:16;;;;;;;5.63;2.43;;;;;;;23.31;78.05;95775.28;4388722;32;20246;-53
2022/07/21 03:20:43;;;;;;;1.27;1.27;;;;;;;23.28;78.31;95778.72;4385453;32;20191;-51
2022/07/21 03:23:11;;;;;;;1.37;1.37;;;;;;;23.28;77.69;95778.72;4404335;32;20247;-51
2022/07/21 03:25:37;;;;;;;1.67;1.63;;;;;;;23.26;78.55;95770.19;4376844;32;20216;-52
2022/07/21 03:28:04;;;;;;;2.63;2.47;;;;;;;23.27;78.76;95774.47;4399671;32;20295;-54
2022/07/21 03:30:30;;;;;;;1.23;1.23;;;;;;;23.22;80.74;95769.34;4381089;32;20305;-54
2022/07/21 03:32:56;;;;;;;0.97;0.97;;;;;;;23.22;79.74;95777.47;4374598;32;20298;-52
2022/07/21 03:35:22;;;;;;;2.10;1.97;;;;;;;23.23;78.25;95773.63;4400111;32;20195;-52
2022/07/21 03:37:51;;;;;;;1.47;1.47;;;;;;;23.25;78.54;95771.34;4402634;32;20287;-55
2022/07/21 03:40:22;;;;;;;1.70;1.60;;;;;;;23.27;77.03;95768.28;4409832;32;20215;-54
2022/07/21 03:42:50;;;;;;;2.07;1.97;;;;;;;23.29;76.47;95765.97;4398685;32;20195;-54
2022/07/21 03:45:17;;;;;;;1.63;1.53;;;;;;;23.26;79.21;95762.06;4382779;32;20184;-54
2022/07/21 03:47:43;;;;;;;1.33;1.33;;;;;;;23.29;77.10;95772.16;4368607;32;20196;-52
2022/07/21 03:50:09;;;;;;;1.80;1.80;;;;;;;23.30;77.83;95760.19;4378440;32;20261;-55
2022/07/21 03:52:34;;;;;;;1.83;1.83;;;;;;;23.29;77.42;95765.97;4397204;32;20184;-51
2022/07/21 03:55:08;;;;;;;2.00;1.87;;;;;;;23.27;77.34;95779.09;4382642;32;20188;-54
2022/07/21 03:57:54;;;;;;;1.70;1.60;;;;;;;23.26;77.14;95794.56;4384688;32;20195;-54
2022/07/21 04:00:40;;;;;;;1.50;1.47;;;;;;;23.23;78.16;95794.50;4399724;32;20192;-52
2022/07/21 04:03:07;;;;;;;0.87;0.83;;;;;;;23.10;80.46;95796.59;4399630;32;20196;-54
2022/07/21 04:05:34;;;;;;;2.37;1.53;;;;;;;23.18;77.55;95813.75;4373450;32;20202;-53
2022/07/21 04:08:00;;;;;;;1.60;1.50;;;;;;;23.10;80.76;95807.44;4350450;32;20277;-54
2022/07/21 04:10:32;;;;;;;3.43;2.37;;;;;;;23.03;79.08;95801.13;4351441;32;20294;-54
2022/07/21 04:13:01;;;;;;;2.03;1.93;;;;;;;23.08;80.23;95812.41;4388971;32;20290;-54
2022/07/21 04:15:27;;;;;;;1.93;1.83;;;;;;;23.06;79.92;95817.44;4385447;32;20327;-52
2022/07/21 04:17:52;;;;;;;1.90;1.90;;;;;;;23.03;80.57;95811.97;4378525;32;20204;-53
2022/07/21 04:20:19;;;;;;;1.97;1.70;;;;;;;22.95;80.14;95808.34;4399223;32;20254;-54
2022/07/21 04:22:45;;;;;;;2.80;2.60;;;;;;;22.89;80.30;95815.19;4398035;32;20233;-55
2022/07/21 04:25:13;;;;;;;1.70;1.70;;;;;;;23.00;79.15;95818.88;4395391;32;20188;-50
2022/07/21 04:27:41;;;;;;;3.40;2.53;;;;;;;22.87;81.26;95814.75;4402596;32;20242;-51
2022/07/21 04:30:11;;;;;;;1.33;1.33;;;;;;;22.88;81.13;95811.69;4388051;32;20241;-53
2022/07/21 04:32:38;;;;;;;2.70;2.50;;;;;;;22.83;80.94;95819.34;4386136;32;20255;-50
2022/07/21 04:35:08;;;;;;;1.40;1.40;;;;;;;22.81;81.31;95817.00;4402601;32;20195;-53
2022/07/21 04:37:35;;;;;;;1.93;1.87;;;;;;;22.80;81.82;95828.19;4398639;32;20183;-55
2022/07/21 04:40:05;;;;;;;3.07;2.83;;;;;;;22.84;81.10;95823.63;4401547;32;20216;-53
2022/07/21 04:42:31;;;;;;;3.23;1.80;;;;;;;22.83;80.76;95832.87;4365668;32;20239;-53
2022/07/21 04:44:57;;;;;;;2.17;2.07;;;;;;;22.89;80.43;95836.84;4399319;32;20272;-57
2022/07/21 04:47:26;;;;;;;2.23;2.13;;;;;;;22.82;81.15;95839.44;4355283;32;20256;-54
2022/07/21 04:49:52;;;;;;;2.30;2.20;;;;;;;22.90;79.45;95841.88;4391289;32;20189;-52
2022/07/21 04:52:18;;;;;;;2.50;2.30;;;;;;;22.91;78.99;95845.38;4399208;32;20198;-53
2022/07/21 04:54:44;;;;;;;2.53;2.43;;;;;;;23.00;78.23;95843.22;4387737;32;20207;-54
2022/07/21 04:57:11;;;;;;;3.40;3.20;;;;;;;23.01;79.40;95847.50;4401433;32;20188;-53
2022/07/21 04:59:37;;;;;;;1.53;1.43;;;;;;;23.03;78.38;95853.34;4385728;32;20247;-53
2022/07/21 05:02:03;;;;;;;2.80;2.23;;;;;;;23.01;79.62;95847.50;4356551;32;20204;-52
2022/07/21 05:04:29;;;;;;;2.77;2.57;;;;;;;22.94;79.36;95852.78;4369197;32;20238;-54
2022/07/21 05:06:56;;;;;;;2.20;2.10;;;;;;;22.88;79.45;95855.00;4387537;32;20191;-54
2022/07/21 05:09:22;;;;;;;1.90;1.80;;;;;;;22.91;79.13;95854.28;4390832;32;20192;-54
2022/07/21 05:11:47;;;;;;;2.63;2.20;;;;;;;22.98;78.94;95852.84;4372604;32;20222;-54
2022/07/21 05:14:13;;;;;;;1.87;1.77;;;;;;;22.99;78.02;95866.03;4400136;32;20196;-53
2022/07/21 05:16:38;;;;;;;1.97;1.97;;;;;;;23.03;79.00;95860.69;4390962;32;20253;-50
2022/07/21 05:19:04;;;;;;;5.93;2.63;;;;;;;22.94;79.37;95875.22;4390438;32;20196;-53
2022/07/21 05:21:29;;;;;;;2.57;2.47;;;;;;;22.93;79.12;95873.66;4388179;32;20192;-54
2022/07/21 05:23:56;;;;;;;2.37;2.27;;;;;;;22.95;79.21;95879.50;4377417;32;20196;-54
2022/07/21 05:26:22;;;;;;;2.03;1.83;;;;;;;23.05;76.08;95878.13;4377892;32;20204;-54
2022/07/21 05:28:48;;;;;;;3.63;2.23;;;;;;;23.01;78.04;95882.69;4366805;32;20214;-54
2022/07/21 05:31:13;;;;;;;2.50;2.40;;;;;;;23.07;76.49;95877.78;4385937;32;20231;-51
2022/07/21 05:33:40;;;;;;;1.77;1.67;;;;;;;23.01;78.13;95884.63;4393986;32;20252;-53
2022/07/21 05:36:05;;;;;;;2.20;2.10;;;;;;;22.95;78.85;95884.13;4394428;32;20204;-52
2022/07/21 05:38:32;;;;;;;2.43;2.23;;;;;;;22.86;79.75;95886.28;4363429;32;20215;-53
2022/07/21 05:40:59;;;;;;;2.27;2.17;;;;;;;22.87;79.90;95890.53;4380704;32;20345;-54
2022/07/21 05:43:25;;;;;;;3.77;3.50;;;;;;;22.84;79.37;95892.06;4386004;32;20231;-57
2022/07/21 05:45:51;;;;;;;3.03;2.83;;;;;;;22.99;77.24;95892.31;4368994;32;20196;-57
2022/07/21 05:48:18;;;;;;;3.23;3.13;;;;;;;23.11;75.92;95884.78;4365876;32;20196;-58
2022/07/21 05:50:43;;;;;;;2.87;2.67;;;;;;;23.08;75.97;95887.44;4386664;32;20204;-59
2022/07/21 05:53:10;;;;;;;2.47;2.33;;;;;;;23.07;76.64;95889.34;4385550;32;20214;-58
2022/07/21 05:55:36;;;;;;;2.57;2.47;;;;;;;22.92;79.73;95890.25;4403196;32;20191;-58
2022/07/21 05:58:02;;;;;;;2.80;2.63;;;;;;;23.00;77.92;95893.87;4394564;32;20191;-57
2022/07/21 06:00:28;;;;;;;3.00;2.87;;;;;;;23.10;77.43;95898.69;4390707;32;20316;-57
2022/07/21 06:02:53;;;;;;;4.70;2.83;;;;;;;23.08;77.44;95896.34;4398779;32;20212;-53
2022/07/21 06:05:18;;;;;;;2.97;2.87;;;;;;;23.06;78.99;95893.25;4396454;32;20242;-58
2022/07/21 06:07:44;;;;;;;2.40;2.30;;;;;;;23.08;77.76;95895.56;4370982;32;20184;-58
2022/07/21 06:10:10;;;;;;;2.40;2.30;;;;;;;23.07;78.69;95892.06;4374511;32;20197;-57
2022/07/21 06:12:37;;;;;;;2.37;2.27;;;;;;;23.11;77.71;95900.25;4404768;32;20220;-58
2022/07/21 06:15:05;;;;;;;1.93;1.83;;;;;;;22.99;80.59;95901.22;4375295;32;20206;-58
2022/07/21 06:17:32;;;;;;;2.13;2.03;;;;;;;23.17;77.04;95896.12;4392712;32;20184;-58
2022/07/21 06:19:59;;;;;;;2.33;2.17;;;;;;;23.10;79.62;95904.88;4382509;32;20293;-58
2022/07/21 06:22:24;;;;;;;7.50;2.57;;;;;;;23.01;79.49;95906.28;4349158;32;20264;-58
2022/07/21 06:24:50;;;;;;;2.40;2.30;;;;;;;23.09;79.04;95914.16;4377371;32;20211;-57
2022/07/21 06:27:18;;;;;;;2.07;1.97;;;;;;;23.01;78.69;95919.81;4400492;32;20253;-56
2022/07/21 06:29:44;;;;;;;3.40;3.27;;;;;;;23.12;78.14;95916.16;4383275;32;20244;-57
2022/07/21 06:32:10;;;;;;;2.93;2.73;;;;;;;23.08;78.33;95926.13;4383835;32;20210;-56
2022/07/21 06:34:36;;;;;;;3.30;3.00;;;;;;;22.98;78.63;95923.22;4374592;32;20205;-57
2022/07/21 06:37:02;;;;;;;2.77;2.57;;;;;;;22.96;79.19;95921.66;4385634;32;20193;-58
2022/07/21 06:39:27;;;;;;;2.63;2.43;;;;;;;23.06;78.17;95920.31;4365613;32;20302;-57
2022/07/21 06:41:53;;;;;;;2.37;2.27;;;;;;;23.04;78.83;95927.22;4384016;32;20202;-58
2022/07/21 06:44:18;;;;;;;3.33;3.13;;;;;;;23.04;79.27;95919.88;4384924;32;20184;-58
2022/07/21 06:46:44;;;;;;;3.00;2.83;;;;;;;22.99;79.96;95928.28;4388390;32;20226;-58
2022/07/21 06:49:09;;;;;;;3.77;3.47;;;;;;;22.96;79.94;95934.41;4363825;32;20192;-58
2022/07/21 06:51:35;;;;;;;3.93;3.63;;;;;;;22.92;80.27;95930.84;4403748;32;20195;-57
2022/07/21 06:54:00;;;;;;;3.20;2.90;;;;;;;22.95;80.66;95935.53;4371764;32;20277;-55
2022/07/21 06:56:25;;;;;;;2.57;2.47;;;;;;;23.00;80.25;95937.19;4386287;32;20214;-56
2022/07/21 06:58:52;;;;;;;2.87;2.77;;;;;;;22.96;80.60;95937.13;4381608;32;20196;-56
2022/07/21 07:01:19;;;;;;;3.37;3.17;;;;;;;22.98;80.86;95929.44;4366412;32;20203;-55
2022/07/21 07:03:46;;;;;;;3.03;2.93;;;;;;;23.00;80.79;95937.97;4376303;32;20242;-56
2022/07/21 07:06:13;;;;;;;3.83;3.63;;;;;;;23.03;80.85;95944.59;4382518;32;20259;-56
2022/07/21 07:08:39;;;;;;;2.73;2.63;;;;;;;23.16;80.40;95935.94;4375317;32;20266;-57
2022/07/21 07:11:05;;;;;;;2.67;2.57;;;;;;;23.19;80.36;95942.56;4337753;32;20209;-57
2022/07/21 07:13:31;;;;;;;3.47;3.27;;;;;;;23.08;80.78;95944.28;4355340;32;20196;-58
2022/07/21 07:15:58;;;;;;;15.30;4.10;;;;;;;23.07;80.81;95948.16;4336040;32;20223;-55
2022/07/21 07:18:25;;;;;;;2.70;2.60;;;;;;;23.06;80.96;95941.97;4373477;32;20196;-55
2022/07/21 07:20:51;;;;;;;4.33;4.03;;;;;;;23.12;80.45;95951.34;4395659;32;20207;-56
2022/07/21 07:23:17;;;;;;;7.47;4.33;;;;;;;23.06;80.63;95955.50;4374759;32;20305;-56
2022/07/21 07:25:43;;;;;;;3.17;2.83;;;;;;;23.08;80.85;95945.06;4395436;32;20253;-59
2022/07/21 07:28:10;;;;;;;3.17;3.00;;;;;;;23.09;80.39;95940.44;4375926;32;20184;-57
2022/07/21 07:30:35;;;;;;;3.33;3.13;;;;;;;23.11;80.19;95941.66;4379387;32;20226;-56
2022/07/21 07:33:01;;;;;;;3.80;3.60;;;;;;;23.14;79.66;95942.88;4359857;32;20196;-56
2022/07/21 07:35:27;;;;;;;2.90;2.80;;;;;;;23.10;79.65;95948.19;4397123;32;20248;-52
2022/07/21 07:37:52;;;;;;;3.53;3.03;;;;;;;23.17;79.07;95947.56;4401389;32;20191;-54
2022/07/21 07:40:22;;;;;;;2.13;2.03;;;;;;;23.14;78.21;95954.47;4402516;32;20191;-55
2022/07/21 07:42:48;;;;;;;1.90;1.80;;;;;;;23.14;77.80;95948.28;4392335;32;20258;-55
2022/07/21 07:45:15;;;;;;;2.23;2.13;;;;;;;23.19;77.37;95954.19;4375186;32;20192;-56
2022/07/21 07:47:42;;;;;;;2.23;2.13;;;;;;;23.23;77.19;95954.25;4375082;32;20192;-56
2022/07/21 07:50:11;;;;;;;3.13;2.83;;;;;;;23.19;77.33;95967.72;4384835;32;20226;-56
2022/07/21 07:52:39;;;;;;;2.50;2.40;;;;;;;23.17;77.37;95961.09;4394929;32;20203;-52
2022/07/21 07:55:07;;;;;;;2.20;2.10;;;;;;;23.13;77.63;95954.84;4402708;32;20263;-53
2022/07/21 07:57:34;;;;;;;6.63;3.50;;;;;;;23.19;77.14;95961.53;4369530;32;20204;-54
2022/07/21 08:00:01;;;;;;;3.07;2.90;;;;;;;23.18;78.29;95962.66;4371355;32;20219;-56
2022/07/21 08:02:27;;;;;;;2.63;2.53;;;;;;;23.17;77.70;95961.87;4393764;32;20203;-56
2022/07/21 08:04:53;;;;;;;2.87;2.77;;;;;;;23.13;78.03;95955.63;4392758;32;20183;-55
2022/07/21 08:07:18;;;;;;;2.33;2.30;;;;;;;23.20;77.20;95955.75;4393893;32;20200;-56
2022/07/21 08:09:44;;;;;;;2.13;2.13;;;;;;;23.24;77.15;95964.75;4351393;32;20203;-54
2022/07/21 08:12:09;;;;;;;3.03;2.87;;;;;;;23.23;77.39;95965.88;4379105;32;20231;-55
2022/07/21 08:14:35;;;;;;;2.60;2.43;;;;;;;23.28;77.15;95965.56;4403554;32;20203;-55
2022/07/21 08:17:00;;;;;;;3.30;3.00;;;;;;;23.22;77.84;95964.31;4399546;32;20205;-55
2022/07/21 08:19:27;;;;;;;2.27;2.17;;;;;;;23.24;77.29;95964.75;4391186;32;20287;-55
2022/07/21 08:21:52;;;;;;;2.83;2.67;;;;;;;23.24;77.37;95972.84;4380448;32;20207;-53
2022/07/21 08:24:19;;;;;;;4.40;2.73;;;;;;;23.21;77.35;95965.44;4386275;32;20204;-56
2022/07/21 08:26:46;;;;;;;3.90;3.60;;;;;;;23.22;77.27;95966.22;4358237;32;20189;-56
2022/07/21 08:29:14;;;;;;;3.03;2.93;;;;;;;23.29;77.13;95966.34;4376768;32;20188;-58
2022/07/21 08:31:39;;;;;;;3.50;3.30;;;;;;;23.33;76.71;95966.41;4396868;32;20215;-54
2022/07/21 08:34:04;;;;;;;3.07;2.97;;;;;;;23.27;77.14;95957.81;4310883;32;20211;-56
2022/07/21 08:36:29;;;;;;;2.33;2.23;;;;;;;23.34;76.76;95965.28;4393397;32;20241;-54
2022/07/21 08:39:02;;;;;;;3.77;3.47;;;;;;;23.27;77.48;95966.72;4395704;32;20192;-56
2022/07/21 08:41:27;;;;;;;3.40;3.20;;;;;;;23.25;77.43;95965.53;4391480;32;20206;-55
2022/07/21 08:43:53;;;;;;;3.23;3.03;;;;;;;23.26;76.71;95965.16;4363256;32;20249;-54
2022/07/21 08:46:23;;;;;;;3.53;3.33;;;;;;;23.25;77.06;95960.87;4388631;32;20239;-54
2022/07/21 08:48:51;;;;;;;2.27;2.17;;;;;;;23.30;76.95;95966.00;4380864;32;20214;-57
2022/07/21 08:51:17;;;;;;;2.90;2.70;;;;;;;23.20;77.74;95971.22;4378456;32;20202;-59
2022/07/21 08:53:46;;;;;;;2.60;2.50;;;;;;;23.27;76.79;95969.44;4391839;32;20255;-57
2022/07/21 08:56:12;;;;;;;3.93;3.60;;;;;;;23.28;77.06;95970.19;4370093;32;20258;-57
2022/07/21 08:58:39;;;;;;;3.07;2.90;;;;;;;23.25;76.54;95971.72;4377203;32;20200;-54
2022/07/21 09:01:07;;;;;;;4.40;2.67;;;;;;;23.33;76.38;95971.84;4397941;32;20291;-53
2022/07/21 09:03:34;;;;;;;2.67;2.57;;;;;;;23.41;76.37;95978.97;4392011;32;20192;-55
2022/07/21 09:06:17;;;;;;;2.33;2.23;;;;;;;23.29;77.12;95977.19;4394107;32;20214;-56
2022/07/21 09:08:51;;;;;;;1.93;1.93;;;;;;;23.36;76.42;95981.94;4390241;32;20188;-55
2022/07/21 09:11:25;;;;;;;3.03;2.83;;;;;;;23.38;76.02;95977.75;4395868;32;20191;-52
2022/07/21 09:14:14;;;;;;;2.20;2.10;;;;;;;23.44;75.76;95978.25;4391150;32;20231;-54
2022/07/21 09:16:43;;;;;;;2.47;2.37;;;;;;;23.31;77.04;95983.81;4380526;32;20433;-54
2022/07/21 09:19:17;;;;;;;3.00;2.80;;;;;;;23.39;75.77;95983.94;4396429;32;20191;-53
2022/07/21 09:21:47;;;;;;;3.33;2.83;;;;;;;23.31;76.31;95975.69;4382587;32;20236;-57
2022/07/21 09:24:12;;;;;;;1.77;1.77;;;;;;;23.24;77.22;95980.97;4404107;32;20180;-57
2022/07/21 09:27:01;;;;;;;4.37;3.40;;;;;;;23.36;76.15;95973.81;4399122;32;20199;-55
2022/07/21 09:29:53;;;;;;;3.50;3.30;;;;;;;23.20;77.91;95980.12;4393251;32;20192;-54
2022/07/21 09:32:30;;;;;;;3.00;2.90;;;;;;;23.08;79.25;95984.87;4364545;32;20244;-53
2022/07/21 09:35:12;;;;;;;2.30;2.10;;;;;;;22.98;80.37;95982.78;4382826;32;20201;-54
2022/07/21 09:37:38;;;;;;;3.40;3.20;;;;;;;23.17;77.20;95978.13;4379808;32;20187;-54
2022/07/21 09:40:11;;;;;;;2.97;2.87;;;;;;;23.06;79.25;95990.69;4384697;32;20196;-52
2022/07/21 09:42:49;;;;;;;2.47;2.37;;;;;;;23.03;78.17;95982.50;4388641;32;20195;-53
2022/07/21 09:45:16;;;;;;;4.07;3.77;;;;;;;22.96;80.26;95983.13;4372886;32;20195;-55
2022/07/21 09:47:43;;;;;;;7.90;2.83;;;;;;;23.03;77.96;95985.97;4373063;32;20204;-53
2022/07/21 09:50:12;;;;;;;3.17;2.97;;;;;;;23.09;78.02;95989.94;4389985;32;20176;-50
2022/07/21 09:52:41;;;;;;;2.80;2.70;;;;;;;22.81;80.90;95994.81;4414169;32;20176;-53
2022/07/21 09:55:14;;;;;;;2.60;2.40;;;;;;;22.82;79.05;95999.87;4382753;32;20196;-56
2022/07/21 09:57:40;;;;;;;3.63;3.33;;;;;;;22.99;78.04;95990.53;4381257;32;20191;-55
2022/07/21 10:00:09;;;;;;;3.63;3.43;;;;;;;23.05;77.67;96002.66;4374100;32;20207;-55
2022/07/21 10:02:34;;;;;;;2.80;2.70;;;;;;;22.85;81.89;96006.50;4396570;32;20202;-55
2022/07/21 10:05:21;;;;;;;3.73;3.43;;;;;;;22.96;78.28;96002.06;4361378;32;20188;-56
2022/07/21 10:07:49;;;;;;;2.93;2.83;;;;;;;22.85;80.10;96011.91;4377165;32;20202;-56
2022/07/21 10:10:19;;;;;;;2.40;2.30;;;;;;;22.70;82.18;96012.69;4400276;32;20225;-55
2022/07/21 10:12:45;;;;;;;2.90;2.70;;;;;;;22.79;80.82;96018.72;4399988;32;20201;-54
2022/07/21 10:15:11;;;;;;;2.90;2.80;;;;;;;22.94;80.16;96020.59;4394224;32;20203;-53
2022/07/21 10:17:38;;;;;;;2.80;2.70;;;;;;;22.86;82.00;96018.88;4385220;32;20247;-53
2022/07/21 10:20:31;;;;;;;3.50;3.20;;;;;;;22.61;87.19;96024.50;4404311;32;20214;-56
2022/07/21 10:23:27;;;;;;;4.27;3.97;;;;;;;22.17;90.55;96021.19;4388149;32;20187;-53
2022/07/21 10:25:53;;;;;;;3.07;2.83;;;;;;;22.09;90.66;96018.66;4405312;32;20188;-55
2022/07/21 10:28:28;;;;;;;4.10;3.90;;;;;;;21.80;92.21;96017.94;4387013;32;20212;-52
2022/07/21 10:30:57;;;;;;;18.33;4.27;;;;;;;21.59;93.82;96022.78;4390049;32;20195;-55
2022/07/21 10:33:44;;;;;;;5.03;4.73;;;;;;;21.52;94.97;96028.78;4397101;32;20199;-55
2022/07/21 10:36:10;;;;;;;3.40;2.90;;;;;;;21.57;94.88;96019.66;4372918;32;20248;-54
2022/07/21 10:38:37;;;;;;;3.37;3.07;;;;;;;21.67;93.27;96023.75;4344470;32;20203;-51
2022/07/21 10:41:05;;;;;;;3.03;2.93;;;;;;;21.64;94.05;96030.63;4369721;32;20260;-56
2022/07/21 10:43:30;;;;;;;3.97;3.60;;;;;;;21.77;91.11;96024.03;4381030;32;20191;-54
2022/07/21 10:45:57;;;;;;;2.90;2.80;;;;;;;21.86;90.54;96027.34;4388284;32;20238;-54
2022/07/21 10:48:41;;;;;;;3.10;3.00;;;;;;;22.01;89.14;96022.31;4396473;32;20192;-55
2022/07/21 10:51:14;;;;;;;3.43;3.23;;;;;;;22.01;89.44;96020.41;4396247;32;20188;-56
2022/07/21 10:53:41;;;;;;;2.90;2.70;;;;;;;22.12;89.17;96028.75;4361277;32;20253;-54
2022/07/21 10:56:07;;;;;;;2.70;2.60;;;;;;;22.18;88.89;96017.34;4389545;32;20203;-56
2022/07/21 10:58:42;;;;;;;3.63;3.33;;;;;;;22.23;88.48;96014.37;4369124;32;20199;-57
2022/07/21 11:01:27;;;;;;;4.37;4.07;;;;;;;22.31;87.01;96019.94;4387160;32;20195;-56
2022/07/21 11:04:13;;;;;;;3.13;2.93;;;;;;;22.38;88.10;96028.22;4392839;32;20255;-57
2022/07/21 11:06:41;;;;;;;4.10;3.87;;;;;;;22.45;87.70;96021.03;4386114;32;20192;-53
2022/07/21 11:09:12;;;;;;;3.70;3.40;;;;;;;22.41;88.66;96019.41;4390366;32;20197;-57
2022/07/21 11:11:58;;;;;;;2.23;2.13;;;;;;;22.52;85.19;96020.41;4362823;32;20192;-55
2022/07/21 11:14:39;;;;;;;3.57;3.37;;;;;;;22.59;86.54;96010.56;4405651;32;20210;-56
2022/07/21 11:17:24;;;;;;;3.27;3.17;;;;;;;22.71;84.29;96014.25;4398655;32;20230;-55
2022/07/21 11:19:50;;;;;;;5.37;3.07;;;;;;;22.73;86.39;96018.19;4400715;32;20223;-54
2022/07/21 11:22:20;;;;;;;4.97;4.07;;;;;;;22.72;85.37;96013.13;4405890;32;20233;-56
2022/07/21 11:24:55;;;;;;;2.03;2.03;;;;;;;22.59;87.53;96021.38;4390707;32;20266;-56
2022/07/21 11:27:23;;;;;;;3.30;3.20;;;;;;;22.56;87.10;96007.78;4381713;32;20288;-56
2022/07/21 11:29:54;;;;;;;3.67;3.57;;;;;;;22.51;87.43;96013.44;4394429;32;20188;-56
2022/07/21 11:32:21;;;;;;;3.17;3.07;;;;;;;22.54;86.61;96008.13;4380636;32;20263;-54
2022/07/21 11:34:58;;;;;;;3.67;2.60;;;;;;;22.51;86.55;96008.03;4354767;32;20196;-51
2022/07/21 11:37:37;;;;;;;4.20;3.80;;;;;;;22.49;86.48;96011.09;4385261;32;20204;-49
2022/07/21 11:40:20;;;;;;;4.70;4.37;;;;;;;22.41;86.82;96001.28;4383414;32;20208;-49
2022/07/21 11:42:50;;;;;;;3.37;3.27;;;;;;;22.48;85.78;96003.31;4389358;32;20196;-48